createdAt,value
2016-06-20T17:02:17.274Z,23.91
2016-06-20T17:02:26.858Z,24.1
2016-06-20T17:02:36.862Z,23.82
2016-06-20T17:02:46.864Z,23.62
2016-06-20T17:02:56.876Z,23.43
2016-06-20T17:03:06.875Z,23.43
2016-06-20T17:03:16.878Z,23.24
2016-06-20T17:03:26.887Z,23.24
2016-06-20T17:03:36.899Z,23.05
2016-06-20T17:03:46.905Z,22.85
2016-06-20T17:03:56.910Z,22.85
2016-06-20T17:04:06.908Z,23.82
2016-06-20T17:04:16.914Z,24.58
2016-06-20T17:04:26.919Z,24.77
2016-06-20T17:04:36.927Z,24.1
2016-06-20T17:04:46.941Z,24.29
2016-06-20T17:04:56.943Z,23.72
2016-06-20T17:05:06.947Z,23.72
2016-06-20T17:05:16.949Z,23.62
2016-06-20T17:05:26.952Z,23.24
2016-06-20T17:05:36.968Z,23.33
2016-06-20T17:05:46.967Z,23.14
2016-06-20T17:05:56.970Z,22.56
2016-06-20T17:06:06.989Z,22.47
2016-06-20T17:06:16.995Z,22.76
2016-06-20T17:06:26.986Z,22.47
2016-06-20T17:06:36.998Z,22.47
2016-06-20T17:06:47.015Z,22.38
2016-06-20T17:06:57.011Z,22.85
2016-06-20T17:07:07.011Z,22.95
2016-06-20T17:07:17.013Z,22.85
2016-06-20T17:07:27.026Z,22.76
2016-06-20T17:07:37.033Z,22.66
2016-06-20T17:07:47.032Z,22.85
2016-06-20T17:07:57.050Z,22.47
2016-06-20T17:08:07.050Z,22.18
2016-06-20T17:08:17.056Z,22.28
2016-06-20T17:08:27.061Z,21.8
2016-06-20T17:08:37.066Z,21.8
2016-06-20T17:08:47.067Z,22.08
2016-06-20T17:08:57.076Z,22.38
2016-06-20T17:09:07.083Z,22.47
2016-06-20T17:09:17.087Z,22.47
2016-06-20T17:09:27.096Z,22.18
2016-06-20T17:09:37.099Z,22.47
2016-06-20T17:09:47.115Z,21.89
2016-06-20T17:09:57.107Z,21.8
2016-06-20T17:10:07.108Z,21.99
2016-06-20T17:10:17.125Z,22.18
2016-06-20T17:10:27.132Z,21.8
2016-06-20T17:10:37.132Z,22.56
2016-06-20T17:10:47.143Z,22.08
2016-06-20T17:10:57.143Z,22.27
2016-06-20T17:11:07.194Z,21.8
2016-06-20T17:11:17.153Z,22.38
2016-06-20T17:11:27.165Z,22.47
2016-06-20T17:11:37.170Z,22.46
2016-06-20T17:11:47.174Z,22.28
2016-06-20T17:11:57.184Z,22.28
2016-06-20T17:12:07.178Z,21.99
2016-06-20T17:12:17.181Z,21.89
2016-06-20T17:12:27.192Z,22.08
2016-06-20T17:12:37.199Z,21.59
2016-06-20T17:12:47.207Z,21.41
2016-06-20T17:12:57.214Z,21.51
2016-06-20T17:13:07.213Z,20.92
2016-06-20T17:13:17.219Z,21.22
2016-06-20T17:13:27.226Z,21.88
2016-06-20T17:13:37.233Z,21.88
2016-06-20T17:13:47.238Z,21.98
2016-06-20T17:13:57.244Z,21.59
2016-06-20T17:14:07.247Z,21.41
2016-06-20T17:14:17.255Z,21.41
2016-06-20T17:14:27.258Z,21.69
2016-06-20T17:14:37.288Z,21.78
2016-06-20T17:14:47.275Z,21.41
2016-06-20T17:14:57.280Z,21.5
2016-06-20T17:15:07.282Z,21.41
2016-06-20T17:15:17.287Z,20.92
2016-06-20T17:15:27.294Z,20.92
2016-06-20T17:15:37.321Z,20.64
2016-06-20T17:15:47.306Z,20.73
2016-06-20T17:15:57.318Z,20.92
2016-06-20T17:16:07.322Z,21.11
2016-06-20T17:16:17.322Z,21.02
2016-06-20T17:16:27.331Z,21.21
2016-06-20T17:16:37.335Z,21.5
2016-06-20T17:16:47.342Z,20.92
2016-06-20T17:16:57.358Z,21.11
2016-06-20T17:17:07.350Z,20.83
2016-06-20T17:17:17.354Z,20.92
2016-06-20T17:17:27.364Z,20.64
2016-06-20T17:17:37.366Z,20.73
2016-06-20T17:17:47.375Z,20.73
2016-06-20T17:17:57.394Z,20.73
2016-06-20T17:18:07.386Z,20.83
2016-06-20T17:18:17.387Z,20.64
2016-06-20T17:18:27.393Z,20.73
2016-06-20T17:18:37.401Z,20.73
2016-06-20T17:18:47.411Z,20.73
2016-06-20T17:18:57.417Z,20.44
2016-06-20T17:19:07.414Z,20.06
2016-06-20T17:19:17.425Z,20.06
2016-06-20T17:19:27.429Z,20.35
2016-06-20T17:19:37.433Z,19.96
2016-06-20T17:19:47.442Z,20.06
2016-06-20T17:19:57.445Z,20.06
2016-06-20T17:20:07.449Z,20.15
2016-06-20T17:20:17.458Z,20.35
2016-06-20T17:20:27.465Z,20.54
2016-06-20T17:20:37.471Z,20.73
2016-06-20T17:20:47.479Z,20.73
2016-06-20T17:20:57.476Z,20.73
2016-06-20T17:21:07.486Z,20.92
2016-06-20T17:21:17.490Z,20.92
2016-06-20T17:21:27.494Z,20.92
2016-06-20T17:21:37.502Z,20.92
2016-06-20T17:21:47.514Z,20.73
2016-06-20T17:21:57.513Z,21.41
2016-06-20T17:22:07.519Z,20.83
2016-06-20T17:22:17.524Z,20.73
2016-06-20T17:22:27.528Z,20.73
2016-06-20T17:22:37.534Z,20.35
2016-06-20T17:22:47.537Z,20.35
2016-06-20T17:22:57.543Z,20.35
2016-06-20T17:23:07.558Z,20.35
2016-06-20T17:23:17.555Z,20.35
2016-06-20T17:23:27.567Z,20.35
2016-06-20T17:23:37.567Z,20.25
2016-06-20T17:23:47.573Z,19.87
2016-06-20T17:23:57.589Z,20.06
2016-06-20T17:24:07.590Z,20.15
2016-06-20T17:24:17.592Z,19.77
2016-06-20T17:24:27.596Z,19.77
2016-06-20T17:24:37.599Z,19.47
2016-06-20T17:24:47.607Z,19.58
2016-06-20T17:24:57.610Z,19.77
2016-06-20T17:25:07.621Z,19.95
2016-06-20T17:25:17.624Z,19.58
2016-06-20T17:25:27.628Z,19.38
2016-06-20T17:25:37.631Z,19.29
2016-06-20T17:25:47.638Z,19.29
2016-06-20T17:25:57.659Z,19.38
2016-06-20T17:26:07.652Z,19.29
2016-06-20T17:26:17.656Z,19.76
2016-06-20T17:26:27.669Z,19.85
2016-06-20T17:26:37.668Z,19.58
2016-06-20T17:26:47.674Z,19.67
2016-06-20T17:26:57.683Z,19.67
2016-06-20T17:27:07.685Z,19.77
2016-06-20T17:27:17.694Z,19.58
2016-06-20T17:27:27.689Z,19.38
2016-06-20T17:27:37.702Z,18.99
2016-06-20T17:27:47.708Z,18.71
2016-06-20T17:27:57.713Z,19.18
2016-06-20T17:28:07.718Z,19.28
2016-06-20T17:28:17.731Z,19.38
2016-06-20T17:28:27.732Z,19.28
2016-06-20T17:28:37.734Z,18.8
2016-06-20T17:28:47.749Z,18.99
2016-06-20T17:28:57.750Z,18.99
2016-06-20T17:29:07.753Z,18.99
2016-06-20T17:29:17.755Z,19.09
2016-06-20T17:29:27.765Z,18.9
2016-06-20T17:29:37.776Z,18.8
2016-06-20T17:29:47.789Z,18.99
2016-06-20T17:29:57.779Z,18.51
2016-06-20T17:30:07.798Z,18.71
2016-06-20T17:30:17.790Z,18.8
2016-06-20T17:30:27.799Z,18.52
2016-06-20T17:30:37.801Z,18.42
2016-06-20T17:30:47.813Z,18.51
2016-06-20T17:30:57.819Z,18.71
2016-06-20T17:31:07.815Z,18.32
2016-06-20T17:31:17.835Z,18.42
2016-06-20T17:31:27.892Z,18.42
2016-06-20T17:31:37.835Z,18.32
2016-06-20T17:31:47.843Z,18.32
2016-06-20T17:31:57.851Z,18.04
2016-06-20T17:32:07.857Z,18.04
2016-06-20T17:32:17.851Z,17.74
2016-06-20T17:32:27.869Z,17.84
2016-06-20T17:32:37.869Z,17.84
2016-06-20T17:32:47.873Z,17.84
2016-06-20T17:32:57.880Z,17.46
2016-06-20T17:33:07.881Z,17.74
2016-06-20T17:33:17.889Z,17.65
2016-06-20T17:33:27.891Z,17.46
2016-06-20T17:33:37.898Z,17.46
2016-06-20T17:33:47.907Z,17.46
2016-06-20T17:33:57.923Z,17.36
2016-06-20T17:34:07.929Z,17.36
2016-06-20T17:34:17.927Z,17.36
2016-06-20T17:34:27.931Z,17.27
2016-06-20T17:34:37.935Z,16.99
2016-06-20T17:34:47.939Z,17.46
2016-06-20T17:34:57.945Z,17.17
2016-06-20T17:35:07.952Z,17.55
2016-06-20T17:35:17.959Z,17.65
2016-06-20T17:35:27.964Z,17.55
2016-06-20T17:35:37.975Z,17.65
2016-06-20T17:35:47.972Z,17.55
2016-06-20T17:35:57.985Z,17.07
2016-06-20T17:36:07.983Z,17.27
2016-06-20T17:36:17.991Z,17.65
2016-06-20T17:36:27.994Z,17.74
2016-06-20T17:36:38.000Z,17.17
2016-06-20T17:36:48.006Z,17.27
2016-06-20T17:36:58.014Z,16.98
2016-06-20T17:37:08.021Z,17.17
2016-06-20T17:37:18.031Z,16.98
2016-06-20T17:37:28.026Z,16.78
2016-06-20T17:37:38.039Z,16.78
2016-06-20T17:37:48.041Z,16.88
2016-06-20T17:37:58.043Z,16.88
2016-06-20T17:38:08.058Z,16.88
2016-06-20T17:38:18.057Z,16.88
2016-06-20T17:38:28.063Z,16.6
2016-06-20T17:38:38.069Z,16.6
2016-06-20T17:38:48.068Z,16.69
2016-06-20T17:38:58.083Z,16.6
2016-06-20T17:39:08.078Z,16.5
2016-06-20T17:39:18.091Z,16.69
2016-06-20T17:39:28.109Z,16.4
2016-06-20T17:39:38.098Z,16.6
2016-06-20T17:39:48.118Z,16.88
2016-06-20T17:39:58.119Z,16.69
2016-06-20T17:40:08.126Z,16.6
2016-06-20T17:40:18.124Z,16.5
2016-06-20T17:40:28.123Z,16.99
2016-06-20T17:40:38.138Z,16.78
2016-06-20T17:40:48.135Z,16.69
2016-06-20T17:40:58.146Z,16.69
2016-06-20T17:41:08.148Z,16.69
2016-06-20T17:41:18.154Z,16.8
2016-06-20T17:41:28.162Z,16.6
2016-06-20T17:41:38.170Z,16.78
2016-06-20T17:41:48.174Z,16.6
2016-06-20T17:41:58.178Z,16.6
2016-06-20T17:42:08.198Z,16.6
2016-06-20T17:42:18.188Z,16.21
2016-06-20T17:42:28.194Z,16.21
2016-06-20T17:42:38.200Z,16.5
2016-06-20T17:42:48.260Z,16.5
2016-06-20T17:42:58.211Z,16.4
2016-06-20T17:43:08.216Z,16.69
2016-06-20T17:43:18.225Z,16.6
2016-06-20T17:43:28.224Z,16.6
2016-06-20T17:43:38.234Z,16.69
2016-06-20T17:43:48.245Z,16.31
2016-06-20T17:43:58.246Z,16.21
2016-06-20T17:44:08.251Z,16.31
2016-06-20T17:44:18.251Z,16.11
2016-06-20T17:44:28.261Z,16.21
2016-06-20T17:44:38.268Z,16.31
2016-06-20T17:44:48.269Z,16.5
2016-06-20T17:44:58.277Z,16.98
2016-06-20T17:45:08.286Z,16.69
2016-06-20T17:45:18.292Z,16.6
2016-06-20T17:45:28.298Z,16.21
2016-06-20T17:45:38.307Z,16.31
2016-06-20T17:45:48.309Z,16.21
2016-06-20T17:45:58.319Z,16.11
2016-06-20T17:46:08.314Z,16.11
2016-06-20T17:46:18.326Z,15.83
2016-06-20T17:46:28.328Z,15.54
2016-06-20T17:46:38.333Z,15.54
2016-06-20T17:46:48.339Z,16.02
2016-06-20T17:46:58.345Z,16.11
2016-06-20T17:47:08.347Z,16.21
2016-06-20T17:47:18.350Z,15.92
2016-06-20T17:47:28.357Z,15.92
2016-06-20T17:47:38.363Z,15.83
2016-06-20T17:47:48.394Z,15.73
2016-06-20T17:47:58.381Z,15.64
2016-06-20T17:48:08.383Z,15.54
2016-06-20T17:48:18.389Z,15.64
2016-06-20T17:48:28.392Z,15.92
2016-06-20T17:48:38.410Z,15.92
2016-06-20T17:48:48.410Z,15.83
2016-06-20T17:48:58.411Z,15.64
2016-06-20T17:49:08.417Z,15.73
2016-06-20T17:49:18.427Z,15.54
2016-06-20T17:49:28.436Z,15.64
2016-06-20T17:49:38.433Z,15.64
2016-06-20T17:49:48.448Z,15.54
2016-06-20T17:49:58.452Z,15.44
2016-06-20T17:50:08.455Z,15.54
2016-06-20T17:50:18.450Z,15.54
2016-06-20T17:50:28.461Z,15.35
2016-06-20T17:50:38.473Z,15.64
2016-06-20T17:50:48.467Z,15.73
2016-06-20T17:50:58.475Z,15.44
2016-06-20T17:51:08.483Z,15.25
2016-06-20T17:51:18.488Z,15.15
2016-06-20T17:51:28.490Z,14.95
2016-06-20T17:51:38.499Z,14.76
2016-06-20T17:51:48.515Z,14.95
2016-06-20T17:51:58.509Z,14.95
2016-06-20T17:52:08.515Z,15.06
2016-06-20T17:52:18.516Z,14.95
2016-06-20T17:52:28.529Z,14.77
2016-06-20T17:52:38.537Z,14.76
2016-06-20T17:52:48.537Z,14.48
2016-06-20T17:52:58.559Z,14.48
2016-06-20T17:53:08.548Z,14.67
2016-06-20T17:53:18.551Z,14.48
2016-06-20T17:53:28.562Z,14.76
2016-06-20T17:53:38.563Z,14.76
2016-06-20T17:53:48.577Z,14.76
2016-06-20T17:53:58.579Z,14.58
2016-06-20T17:54:08.576Z,14.48
2016-06-20T17:54:18.589Z,14.48
2016-06-20T17:54:28.590Z,14.19
2016-06-20T17:54:38.606Z,14.19
2016-06-20T17:54:48.603Z,14
2016-06-20T17:54:58.610Z,14.09
2016-06-20T17:55:08.617Z,14.19
2016-06-20T17:55:18.615Z,14.19
2016-06-20T17:55:28.627Z,14.19
2016-06-20T17:55:38.626Z,14.48
2016-06-20T17:55:48.644Z,14.48
2016-06-20T17:55:58.638Z,14.67
2016-06-20T17:56:08.644Z,14.19
2016-06-20T17:56:18.659Z,14.38
2016-06-20T17:56:28.657Z,14.19
2016-06-20T17:56:38.662Z,14.09
2016-06-20T17:56:48.668Z,14.28
2016-06-20T17:56:58.673Z,14
2016-06-20T17:57:08.679Z,13.81
2016-06-20T17:57:18.694Z,13.81
2016-06-20T17:57:28.688Z,14.19
2016-06-20T17:57:38.695Z,13.71
2016-06-20T17:57:48.702Z,13.81
2016-06-20T17:57:58.707Z,13.42
2016-06-20T17:58:08.715Z,13.42
2016-06-20T17:58:18.724Z,13.42
2016-06-20T17:58:28.722Z,13.42
2016-06-20T17:58:38.732Z,13.61
2016-06-20T17:58:48.739Z,13.52
2016-06-20T17:58:58.743Z,13.23
2016-06-20T17:59:08.750Z,13.13
2016-06-20T17:59:18.758Z,13.23
2016-06-20T17:59:28.766Z,13.23
2016-06-20T17:59:38.762Z,13.23
2016-06-20T17:59:48.763Z,13.13
2016-06-20T17:59:58.773Z,13.23
2016-06-20T18:00:08.780Z,13.23
2016-06-20T18:00:18.788Z,13.23
2016-06-20T18:00:28.791Z,13.23
2016-06-20T18:00:38.791Z,13.23
2016-06-20T18:00:48.800Z,13.23
2016-06-20T18:00:58.810Z,13.32
2016-06-20T18:01:08.810Z,13.23
2016-06-20T18:01:18.822Z,13.32
2016-06-20T18:01:28.822Z,13.13
2016-06-20T18:01:38.824Z,13.71
2016-06-20T18:01:48.830Z,13.61
2016-06-20T18:01:58.838Z,13.23
2016-06-20T18:02:08.851Z,13.23
2016-06-20T18:02:18.855Z,13.13
2016-06-20T18:02:28.856Z,13.32
2016-06-20T18:02:38.860Z,13.23
2016-06-20T18:02:48.871Z,12.94
2016-06-20T18:02:58.867Z,13.23
2016-06-20T18:03:08.879Z,13.23
2016-06-20T18:03:18.883Z,12.85
2016-06-20T18:03:28.889Z,13.04
2016-06-20T18:03:38.895Z,13.23
2016-06-20T18:03:48.900Z,13.32
2016-06-20T18:03:58.902Z,13.13
2016-06-20T18:04:08.911Z,13.04
2016-06-20T18:04:18.915Z,13.04
2016-06-20T18:04:28.927Z,12.75
2016-06-20T18:04:38.927Z,12.85
2016-06-20T18:04:48.933Z,12.94
2016-06-20T18:04:58.934Z,12.94
2016-06-20T18:05:08.948Z,12.65
2016-06-20T18:05:18.951Z,12.85
2016-06-20T18:05:28.953Z,12.56
2016-06-20T18:05:38.966Z,12.85
2016-06-20T18:05:48.967Z,13.04
2016-06-20T18:05:58.966Z,12.46
2016-06-20T18:06:08.980Z,12.37
2016-06-20T18:06:18.986Z,12.56
2016-06-20T18:06:28.984Z,12.55
2016-06-20T18:06:38.994Z,12.94
2016-06-20T18:06:49.007Z,12.93
2016-06-20T18:06:58.999Z,13.23
2016-06-20T18:07:09.014Z,13.23
2016-06-20T18:07:19.024Z,12.94
2016-06-20T18:07:29.018Z,12.84
2016-06-20T18:07:39.022Z,12.93
2016-06-20T18:07:49.030Z,12.93
2016-06-20T18:07:59.047Z,13.03
2016-06-20T18:08:09.046Z,12.84
2016-06-20T18:08:19.049Z,12.84
2016-06-20T18:08:29.050Z,12.65
2016-06-20T18:08:39.059Z,12.65
2016-06-20T18:08:49.064Z,12.74
2016-06-20T18:08:59.072Z,12.93
2016-06-20T18:09:09.067Z,12.65
2016-06-20T18:09:19.079Z,12.36
2016-06-20T18:09:29.083Z,12.36
2016-06-20T18:09:39.087Z,12.17
2016-06-20T18:09:49.097Z,12.27
2016-06-20T18:09:59.101Z,12.17
2016-06-20T18:10:09.107Z,12.17
2016-06-20T18:10:19.111Z,12.17
2016-06-20T18:10:29.115Z,12.36
2016-06-20T18:10:39.126Z,12.27
2016-06-20T18:10:49.130Z,12.07
2016-06-20T18:10:59.138Z,12.07
2016-06-20T18:11:09.143Z,12.07
2016-06-20T18:11:19.142Z,12.17
2016-06-20T18:11:29.150Z,12.07
2016-06-20T18:11:39.168Z,12.07
2016-06-20T18:11:49.158Z,12.07
2016-06-20T18:11:59.167Z,12.27
2016-06-20T18:12:09.175Z,11.98
2016-06-20T18:12:19.175Z,11.88
2016-06-20T18:12:29.178Z,11.98
2016-06-20T18:12:39.191Z,12.17
2016-06-20T18:12:49.192Z,11.98
2016-06-20T18:12:59.198Z,12.07
2016-06-20T18:13:09.200Z,11.88
2016-06-20T18:13:19.216Z,11.98
2016-06-20T18:13:29.214Z,11.79
2016-06-20T18:13:39.219Z,11.79
2016-06-20T18:13:49.223Z,11.79
2016-06-20T18:13:59.229Z,11.69
2016-06-20T18:14:09.239Z,11.79
2016-06-20T18:14:19.239Z,11.6
2016-06-20T18:14:29.254Z,11.5
2016-06-20T18:14:39.255Z,11.69
2016-06-20T18:14:49.262Z,11.88
2016-06-20T18:14:59.257Z,11.88
2016-06-20T18:15:09.286Z,11.98
2016-06-20T18:15:19.269Z,11.88
2016-06-20T18:15:29.277Z,11.69
2016-06-20T18:15:39.281Z,11.79
2016-06-20T18:15:49.288Z,11.69
2016-06-20T18:15:59.296Z,11.5
2016-06-20T18:16:09.299Z,11.6
2016-06-20T18:16:19.307Z,11.6
2016-06-20T18:16:29.310Z,11.88
2016-06-20T18:16:39.317Z,11.98
2016-06-20T18:16:49.325Z,12.07
2016-06-20T18:16:59.330Z,11.88
2016-06-20T18:17:09.339Z,11.98
2016-06-20T18:17:19.336Z,11.79
2016-06-20T18:17:29.346Z,11.6
2016-06-20T18:17:39.353Z,11.5
2016-06-20T18:17:49.355Z,11.4
2016-06-20T18:17:59.359Z,11.21
2016-06-20T18:18:09.369Z,11.21
2016-06-20T18:18:19.379Z,11.3
2016-06-20T18:18:29.378Z,11.3
2016-06-20T18:18:39.382Z,11.21
2016-06-20T18:18:49.388Z,11.21
2016-06-20T18:18:59.394Z,11.3
2016-06-20T18:19:09.399Z,11.5
2016-06-20T18:19:19.406Z,11.11
2016-06-20T18:19:29.417Z,11.21
2016-06-20T18:19:39.413Z,11.21
2016-06-20T18:19:49.425Z,11.02
2016-06-20T18:19:59.430Z,11.5
2016-06-20T18:20:09.429Z,11.6
2016-06-20T18:20:19.432Z,10.93
2016-06-20T18:20:29.438Z,10.93
2016-06-20T18:20:39.447Z,10.83
2016-06-20T18:20:49.447Z,10.93
2016-06-20T18:20:59.454Z,11.11
2016-06-20T18:21:09.462Z,11.5
2016-06-20T18:21:19.465Z,11.11
2016-06-20T18:21:29.474Z,11.11
2016-06-20T18:21:39.477Z,11.5
2016-06-20T18:21:49.483Z,11.4
2016-06-20T18:21:59.490Z,11.11
2016-06-20T18:22:09.493Z,11.02
2016-06-20T18:22:19.496Z,11.02
2016-06-20T18:22:29.504Z,11.11
2016-06-20T18:22:39.510Z,11.02
2016-06-20T18:22:49.520Z,11.02
2016-06-20T18:22:59.524Z,10.83
2016-06-20T18:23:09.527Z,10.83
2016-06-20T18:23:19.530Z,10.73
2016-06-20T18:23:29.540Z,11.21
2016-06-20T18:23:39.547Z,11.3
2016-06-20T18:23:49.557Z,10.83
2016-06-20T18:23:59.558Z,11.21
2016-06-20T18:24:09.563Z,10.93
2016-06-20T18:24:19.576Z,10.93
2016-06-20T18:24:29.570Z,11.21
2016-06-20T18:24:39.574Z,10.64
2016-06-20T18:24:49.581Z,10.64
2016-06-20T18:24:59.587Z,10.83
2016-06-20T18:25:09.593Z,10.64
2016-06-20T18:25:19.597Z,11.21
2016-06-20T18:25:29.599Z,10.73
2016-06-20T18:25:39.607Z,10.93
2016-06-20T18:25:49.612Z,10.93
2016-06-20T18:25:59.621Z,10.64
2016-06-20T18:26:09.629Z,10.64
2016-06-20T18:26:19.630Z,10.54
2016-06-20T18:26:29.632Z,10.44
2016-06-20T18:26:39.640Z,10.93
2016-06-20T18:26:49.644Z,10.73
2016-06-20T18:26:59.651Z,10.93
2016-06-20T18:27:09.652Z,10.83
2016-06-20T18:27:19.664Z,10.93
2016-06-20T18:27:29.676Z,10.54
2016-06-20T18:27:39.674Z,10.93
2016-06-20T18:27:49.676Z,10.93
2016-06-20T18:27:59.679Z,10.93
2016-06-20T18:28:09.691Z,10.93
2016-06-20T18:28:19.694Z,10.73
2016-06-20T18:28:29.700Z,10.93
2016-06-20T18:28:39.710Z,10.83
2016-06-20T18:28:49.718Z,10.64
2016-06-20T18:28:59.716Z,11.4
2016-06-20T18:29:09.721Z,10.73
2016-06-20T18:29:19.733Z,10.83
2016-06-20T18:29:29.734Z,10.93
2016-06-20T18:29:39.740Z,11.11
2016-06-20T18:29:49.742Z,11.3
2016-06-20T18:29:59.749Z,10.64
2016-06-20T18:30:09.754Z,10.93
2016-06-20T18:30:19.763Z,10.73
2016-06-20T18:30:29.763Z,10.54
2016-06-20T18:30:39.775Z,10.64
2016-06-20T18:30:49.776Z,10.25
2016-06-20T18:30:59.791Z,10.35
2016-06-20T18:31:09.790Z,10.35
2016-06-20T18:31:19.790Z,10.73
2016-06-20T18:31:29.793Z,10.44
2016-06-20T18:31:39.800Z,10.53
2016-06-20T18:31:49.824Z,10.64
2016-06-20T18:31:59.810Z,10.53
2016-06-20T18:32:09.818Z,10.44
2016-06-20T18:32:19.824Z,10.72
2016-06-20T18:32:29.827Z,10.72
2016-06-20T18:32:39.838Z,10.63
2016-06-20T18:32:49.841Z,10.35
2016-06-20T18:32:59.850Z,10.44
2016-06-20T18:33:09.850Z,10.83
2016-06-20T18:33:19.872Z,10.82
2016-06-20T18:33:29.864Z,10.82
2016-06-20T18:33:39.867Z,10.72
2016-06-20T18:33:49.874Z,10.35
2016-06-20T18:33:59.882Z,10.53
2016-06-20T18:34:09.878Z,10.44
2016-06-20T18:34:19.887Z,10.35
2016-06-20T18:34:29.892Z,10.44
2016-06-20T18:34:39.901Z,10.53
2016-06-20T18:34:49.904Z,10.53
2016-06-20T18:34:59.913Z,10.53
2016-06-20T18:35:09.912Z,10.53
2016-06-20T18:35:19.923Z,10.06
2016-06-20T18:35:29.924Z,10.63
2016-06-20T18:35:39.932Z,10.44
2016-06-20T18:35:49.934Z,10.44
2016-06-20T18:35:59.943Z,10.35
2016-06-20T18:36:09.950Z,10.15
2016-06-20T18:36:19.960Z,10.44
2016-06-20T18:36:29.955Z,10.35
2016-06-20T18:36:39.957Z,10.15
2016-06-20T18:36:49.977Z,10.44
2016-06-20T18:36:59.989Z,10.25
2016-06-20T18:37:09.990Z,10.35
2016-06-20T18:37:19.985Z,10.35
2016-06-20T18:37:29.989Z,10.53
2016-06-20T18:37:39.999Z,10.35
2016-06-20T18:37:50.002Z,10.15
2016-06-20T18:38:00.012Z,10.44
2016-06-20T18:38:10.011Z,9.96
2016-06-20T18:38:20.018Z,10.25
2016-06-20T18:38:30.021Z,10.25
2016-06-20T18:38:40.034Z,10.15
2016-06-20T18:38:50.037Z,9.96
2016-06-20T18:39:00.042Z,10.06
2016-06-20T18:39:10.048Z,9.96
2016-06-20T18:39:20.050Z,10.15
2016-06-20T18:39:30.054Z,9.67
2016-06-20T18:39:40.059Z,10.06
2016-06-20T18:39:50.063Z,10.25
2016-06-20T18:40:00.074Z,10.06
2016-06-20T18:40:10.076Z,10.15
2016-06-20T18:40:20.084Z,9.96
2016-06-20T18:40:30.084Z,9.96
2016-06-20T18:40:40.095Z,9.77
2016-06-20T18:40:50.095Z,10.06
2016-06-20T18:41:00.103Z,10.06
2016-06-20T18:41:10.103Z,10.06
2016-06-20T18:41:20.116Z,9.96
2016-06-20T18:41:30.117Z,10.15
2016-06-20T18:41:40.126Z,10.25
2016-06-20T18:41:50.139Z,10.15
2016-06-20T18:42:00.141Z,10.06
2016-06-20T18:42:10.138Z,10.06
2016-06-20T18:42:20.144Z,9.96
2016-06-20T18:42:30.147Z,10.06
2016-06-20T18:42:40.156Z,9.67
2016-06-20T18:42:50.163Z,9.96
2016-06-20T18:43:00.169Z,9.77
2016-06-20T18:43:10.178Z,9.96
2016-06-20T18:43:20.633Z,9.96
2016-06-20T18:43:30.178Z,9.67
2016-06-20T18:43:40.187Z,9.96
2016-06-20T18:43:50.192Z,9.67
2016-06-20T18:44:00.208Z,9.77
2016-06-20T18:44:10.204Z,9.77
2016-06-20T18:44:20.210Z,9.77
2016-06-20T18:44:30.212Z,9.86
2016-06-20T18:44:40.220Z,9.77
2016-06-20T18:44:50.232Z,9.77
2016-06-20T18:45:00.235Z,9.67
2016-06-20T18:45:10.234Z,9.67
2016-06-20T18:45:20.247Z,9.86
2016-06-20T18:45:30.250Z,9.48
2016-06-20T18:45:40.260Z,9.77
2016-06-20T18:45:50.264Z,9.67
2016-06-20T18:46:00.263Z,9.86
2016-06-20T18:46:10.276Z,9.67
2016-06-20T18:46:20.271Z,9.77
2016-06-20T18:46:30.279Z,9.77
2016-06-20T18:46:40.290Z,9.86
2016-06-20T18:46:50.293Z,9.67
2016-06-20T18:47:00.296Z,9.67
2016-06-20T18:47:10.301Z,9.86
2016-06-20T18:47:20.301Z,9.77
2016-06-20T18:47:30.314Z,9.77
2016-06-20T18:47:40.317Z,9.67
2016-06-20T18:47:50.327Z,9.86
2016-06-20T18:48:00.333Z,9.86
2016-06-20T18:48:10.330Z,9.77
2016-06-20T18:48:20.335Z,9.96
2016-06-20T18:48:30.351Z,9.86
2016-06-20T18:48:40.354Z,9.86
2016-06-20T18:48:50.365Z,9.86
2016-06-20T18:49:00.357Z,9.48
2016-06-20T18:49:10.366Z,9.39
2016-06-20T18:49:20.367Z,9.58
2016-06-20T18:49:30.380Z,9.58
2016-06-20T18:49:40.382Z,9.58
2016-06-20T18:49:50.383Z,9.48
2016-06-20T18:50:00.392Z,9.48
2016-06-20T18:50:10.395Z,9.58
2016-06-20T18:50:20.400Z,9.58
2016-06-20T18:50:30.407Z,9.48
2016-06-20T18:50:40.410Z,9.58
2016-06-20T18:50:50.422Z,9.58
2016-06-20T18:51:00.429Z,9.48
2016-06-20T18:51:10.430Z,9.58
2016-06-20T18:51:20.438Z,9.48
2016-06-20T18:51:30.446Z,9.48
2016-06-20T18:51:40.447Z,9.48
2016-06-20T18:51:50.451Z,9.48
2016-06-20T18:52:00.464Z,9.39
2016-06-20T18:52:10.461Z,9.58
2016-06-20T18:52:20.467Z,9.39
2016-06-20T18:52:30.487Z,9.39
2016-06-20T18:52:40.478Z,9.39
2016-06-20T18:52:50.485Z,9.39
2016-06-20T18:53:00.487Z,9.48
2016-06-20T18:53:10.492Z,9.58
2016-06-20T18:53:20.497Z,9.19
2016-06-20T18:53:30.507Z,9.19
2016-06-20T18:53:40.506Z,9.67
2016-06-20T18:53:50.515Z,9.19
2016-06-20T18:54:08.992Z,9.58
2016-06-20T18:54:18.967Z,9.58
2016-06-20T18:54:28.972Z,9.48
2016-06-20T18:54:38.980Z,9.48
2016-06-20T18:54:48.980Z,9.19
2016-06-20T18:54:58.988Z,9.48
2016-06-20T18:55:09.003Z,9.86
2016-06-20T18:55:18.998Z,9.48
2016-06-20T18:55:29.005Z,9.58
2016-06-20T18:55:39.006Z,9.39
2016-06-20T18:55:49.011Z,9.48
2016-06-20T18:55:59.021Z,9.39
2016-06-20T18:56:09.034Z,9.39
2016-06-20T18:56:19.029Z,9.58
2016-06-20T18:56:29.040Z,9.48
2016-06-20T18:56:39.047Z,9.58
2016-06-20T18:56:49.050Z,9.48
2016-06-20T18:56:59.049Z,9.58
2016-06-20T18:57:09.058Z,9.48
2016-06-20T18:57:19.060Z,9.39
2016-06-20T18:57:29.064Z,9.39
2016-06-20T18:57:39.074Z,9.39
2016-06-20T18:57:49.080Z,9.39
2016-06-20T18:57:59.086Z,9.39
2016-06-20T18:58:09.086Z,9.39
2016-06-20T18:58:19.091Z,9.48
2016-06-20T18:58:29.094Z,9.48
2016-06-20T18:58:39.121Z,9.48
2016-06-20T18:58:49.111Z,9.39
2016-06-20T18:58:59.117Z,9.58
2016-06-20T18:59:09.119Z,9.58
2016-06-20T18:59:19.123Z,9.77
2016-06-20T18:59:29.127Z,9.77
2016-06-20T18:59:39.136Z,9.96
2016-06-20T18:59:49.141Z,9.77
2016-06-20T18:59:59.142Z,9.48
2016-06-20T19:00:09.152Z,9.48
2016-06-20T19:00:19.153Z,9.48
2016-06-20T19:00:29.162Z,9.48
2016-06-20T19:00:39.162Z,9.48
2016-06-20T19:00:49.168Z,9.48
2016-06-20T19:00:59.171Z,9.29
2016-06-20T19:01:09.178Z,9.19
2016-06-20T19:01:19.193Z,9.29
2016-06-20T19:01:29.201Z,9.39
2016-06-20T19:01:39.200Z,9.48
2016-06-20T19:01:49.202Z,9.48
2016-06-20T19:01:59.207Z,9.29
2016-06-20T19:02:09.215Z,9.39
2016-06-20T19:02:19.228Z,9.29
2016-06-20T19:02:29.228Z,9.39
2016-06-20T19:02:39.231Z,9.39
2016-06-20T19:02:49.250Z,9.19
2016-06-20T19:02:59.245Z,9
2016-06-20T19:03:09.248Z,9.19
2016-06-20T19:03:19.250Z,9.1
2016-06-20T19:03:29.255Z,9.1
2016-06-20T19:03:39.266Z,9
2016-06-20T19:03:49.274Z,9.1
2016-06-20T19:03:59.289Z,9.29
2016-06-20T19:04:09.280Z,9.19
2016-06-20T19:04:19.291Z,9.19
2016-06-20T19:04:29.290Z,9
2016-06-20T19:04:39.300Z,9.1
2016-06-20T19:04:49.303Z,9.29
2016-06-20T19:04:59.305Z,9
2016-06-20T19:05:09.309Z,9
2016-06-20T19:05:19.323Z,9.1
2016-06-20T19:05:29.318Z,9.1
2016-06-20T19:05:39.324Z,9.1
2016-06-20T19:05:49.333Z,9.1
2016-06-20T19:05:59.342Z,9.29
2016-06-20T19:06:09.342Z,9
2016-06-20T19:06:19.348Z,9
2016-06-20T19:06:29.350Z,8.91
2016-06-20T19:06:39.356Z,9
2016-06-20T19:06:49.366Z,8.91
2016-06-20T19:06:59.378Z,9
2016-06-20T19:07:09.371Z,8.91
2016-06-20T19:07:19.383Z,8.81
2016-06-20T19:07:29.383Z,8.81
2016-06-20T19:07:39.387Z,9
2016-06-20T19:07:49.398Z,8.81
2016-06-20T19:07:59.401Z,8.71
2016-06-20T19:08:09.407Z,8.81
2016-06-20T19:08:19.418Z,8.91
2016-06-20T19:08:29.418Z,8.81
2016-06-20T19:08:39.419Z,8.81
2016-06-20T19:08:49.429Z,8.81
2016-06-20T19:08:59.435Z,8.91
2016-06-20T19:09:09.434Z,8.81
2016-06-20T19:09:19.443Z,8.81
2016-06-20T19:09:29.476Z,8.91
2016-06-20T19:09:39.452Z,8.81
2016-06-20T19:09:49.463Z,8.81
2016-06-20T19:09:59.461Z,8.9
2016-06-20T19:10:09.471Z,8.81
2016-06-20T19:10:19.480Z,8.9
2016-06-20T19:10:29.493Z,8.91
2016-06-20T19:10:39.493Z,8.9
2016-06-20T19:10:49.519Z,9
2016-06-20T19:10:59.493Z,8.81
2016-06-20T19:11:09.501Z,8.81
2016-06-20T19:11:19.507Z,8.81
2016-06-20T19:11:29.515Z,8.62
2016-06-20T19:11:39.519Z,8.81
2016-06-20T19:11:49.526Z,8.52
2016-06-20T19:11:59.527Z,8.52
2016-06-20T19:12:09.530Z,8.81
2016-06-20T19:12:19.537Z,8.62
2016-06-20T19:12:29.543Z,9
2016-06-20T19:12:39.547Z,8.9
2016-06-20T19:12:49.563Z,9